sensor_id;sensor_type;location;lat;lon;timestamp;P1;durP1;ratioP1;P2;durP2;ratioP2
3783;SDS011;1907;49.238;9.262;2022-10-17T00:00:14;2.70;;;2.60;;
3783;SDS011;1907;49.238;9.262;2022-10-17T00:02:40;22.33;;;4.00;;
3783;SDS011;1907;49.238;9.262;2022-10-17T00:05:05;4.07;;;3.80;;
3783;SDS011;1907;49.238;9.262;2022-10-17T00:07:31;2.90;;;2.80;;
3783;SDS011;1907;49.238;9.262;2022-10-17T00:09:57;3.87;;;3.73;;
3783;SDS011;1907;49.238;9.262;2022-10-17T00:12:22;3.10;;;2.97;;
3783;SDS011;1907;49.238;9.262;2022-10-17T00:14:48;3.43;;;3.33;;
3783;SDS011;1907;49.238;9.262;2022-10-17T00:17:13;3.67;;;3.47;;
3783;SDS011;1907;49.238;9.262;2022-10-17T00:19:39;3.57;;;3.47;;
3783;SDS011;1907;49.238;9.262;2022-10-17T00:22:05;4.00;;;3.80;;
3783;SDS011;1907;49.238;9.262;2022-10-17T00:24:31;3.60;;;3.40;;
3783;SDS011;1907;49.238;9.262;2022-10-17T00:26:56;4.20;;;3.90;;
3783;SDS011;1907;49.238;9.262;2022-10-17T00:29:22;3.33;;;3.10;;
3783;SDS011;1907;49.238;9.262;2022-10-17T00:31:48;4.07;;;3.97;;
3783;SDS011;1907;49.238;9.262;2022-10-17T00:34:13;3.00;;;2.90;;
3783;SDS011;1907;49.238;9.262;2022-10-17T00:36:39;3.60;;;3.50;;
3783;SDS011;1907;49.238;9.262;2022-10-17T00:39:04;3.90;;;3.60;;
3783;SDS011;1907;49.238;9.262;2022-10-17T00:41:31;16.43;;;4.47;;
3783;SDS011;1907;49.238;9.262;2022-10-17T00:44:05;3.20;;;3.10;;
3783;SDS011;1907;49.238;9.262;2022-10-17T00:46:51;8.47;;;4.20;;
3783;SDS011;1907;49.238;9.262;2022-10-17T00:49:16;3.50;;;3.37;;
3783;SDS011;1907;49.238;9.262;2022-10-17T00:51:47;4.10;;;3.80;;
3783;SDS011;1907;49.238;9.262;2022-10-17T00:54:18;3.43;;;3.33;;
3783;SDS011;1907;49.238;9.262;2022-10-17T00:56:48;3.40;;;3.30;;
3783;SDS011;1907;49.238;9.262;2022-10-17T00:59:15;15.90;;;4.30;;
3783;SDS011;1907;49.238;9.262;2022-10-17T01:01:45;12.20;;;4.23;;
3783;SDS011;1907;49.238;9.262;2022-10-17T01:04:17;4.30;;;3.90;;
3783;SDS011;1907;49.238;9.262;2022-10-17T01:06:43;3.83;;;3.73;;
3783;SDS011;1907;49.238;9.262;2022-10-17T01:09:09;3.10;;;3.00;;
3783;SDS011;1907;49.238;9.262;2022-10-17T01:11:37;7.70;;;3.43;;
3783;SDS011;1907;49.238;9.262;2022-10-17T01:14:18;7.37;;;3.77;;
3783;SDS011;1907;49.238;9.262;2022-10-17T01:24:32;4.50;;;3.30;;
3783;SDS011;1907;49.238;9.262;2022-10-17T01:33:03;3.67;;;3.50;;
3783;SDS011;1907;49.238;9.262;2022-10-17T01:35:39;3.50;;;3.30;;
3783;SDS011;1907;49.238;9.262;2022-10-17T01:38:26;3.47;;;3.27;;
3783;SDS011;1907;49.238;9.262;2022-10-17T01:43:39;4.20;;;3.27;;
3783;SDS011;1907;49.238;9.262;2022-10-17T01:48:48;4.97;;;4.53;;
3783;SDS011;1907;49.238;9.262;2022-10-17T01:53:44;4.13;;;3.83;;
3783;SDS011;1907;49.238;9.262;2022-10-17T01:56:17;3.17;;;3.07;;
3783;SDS011;1907;49.238;9.262;2022-10-17T01:58:49;3.83;;;3.47;;
3783;SDS011;1907;49.238;9.262;2022-10-17T02:01:20;3.43;;;3.20;;
3783;SDS011;1907;49.238;9.262;2022-10-17T02:03:48;3.30;;;3.20;;
3783;SDS011;1907;49.238;9.262;2022-10-17T02:06:15;3.70;;;3.50;;
3783;SDS011;1907;49.238;9.262;2022-10-17T02:08:47;7.33;;;3.10;;
3783;SDS011;1907;49.238;9.262;2022-10-17T02:11:23;4.30;;;3.93;;
3783;SDS011;1907;49.238;9.262;2022-10-17T02:16:56;2.37;;;2.27;;
3783;SDS011;1907;49.238;9.262;2022-10-17T02:22:15;4.07;;;3.87;;
3783;SDS011;1907;49.238;9.262;2022-10-17T02:24:50;3.23;;;2.93;;
3783;SDS011;1907;49.238;9.262;2022-10-17T02:33:05;3.57;;;3.27;;
3783;SDS011;1907;49.238;9.262;2022-10-17T02:35:53;3.10;;;2.90;;
3783;SDS011;1907;49.238;9.262;2022-10-17T02:38:25;3.40;;;3.30;;
3783;SDS011;1907;49.238;9.262;2022-10-17T02:40:53;4.60;;;3.30;;
3783;SDS011;1907;49.238;9.262;2022-10-17T02:43:19;6.30;;;3.50;;
3783;SDS011;1907;49.238;9.262;2022-10-17T02:45:47;2.13;;;2.03;;
3783;SDS011;1907;49.238;9.262;2022-10-17T02:48:15;3.40;;;3.30;;
3783;SDS011;1907;49.238;9.262;2022-10-17T02:50:51;3.73;;;3.60;;
3783;SDS011;1907;49.238;9.262;2022-10-17T02:53:40;3.40;;;3.23;;
3783;SDS011;1907;49.238;9.262;2022-10-17T02:56:22;9.97;;;3.17;;
3783;SDS011;1907;49.238;9.262;2022-10-17T02:58:53;7.03;;;3.43;;
3783;SDS011;1907;49.238;9.262;2022-10-17T03:01:21;5.47;;;4.57;;
3783;SDS011;1907;49.238;9.262;2022-10-17T03:03:48;2.83;;;2.70;;
3783;SDS011;1907;49.238;9.262;2022-10-17T03:06:13;4.20;;;4.00;;
3783;SDS011;1907;49.238;9.262;2022-10-17T03:08:39;4.20;;;4.00;;
3783;SDS011;1907;49.238;9.262;2022-10-17T03:11:05;4.10;;;3.80;;
3783;SDS011;1907;49.238;9.262;2022-10-17T03:13:30;4.23;;;3.93;;
3783;SDS011;1907;49.238;9.262;2022-10-17T03:15:56;4.30;;;3.10;;
3783;SDS011;1907;49.238;9.262;2022-10-17T03:18:21;3.73;;;3.63;;
3783;SDS011;1907;49.238;9.262;2022-10-17T03:20:47;3.53;;;3.37;;
3783;SDS011;1907;49.238;9.262;2022-10-17T03:23:13;3.53;;;3.33;;
3783;SDS011;1907;49.238;9.262;2022-10-17T03:25:39;4.10;;;3.90;;
3783;SDS011;1907;49.238;9.262;2022-10-17T03:28:05;10.37;;;2.90;;
3783;SDS011;1907;49.238;9.262;2022-10-17T03:30:31;3.93;;;3.70;;
3783;SDS011;1907;49.238;9.262;2022-10-17T03:32:57;10.60;;;3.50;;
3783;SDS011;1907;49.238;9.262;2022-10-17T03:35:23;7.20;;;6.50;;
3783;SDS011;1907;49.238;9.262;2022-10-17T03:37:50;16.60;;;15.33;;
3783;SDS011;1907;49.238;9.262;2022-10-17T03:40:16;11.13;;;10.43;;
3783;SDS011;1907;49.238;9.262;2022-10-17T03:42:41;10.00;;;9.13;;
3783;SDS011;1907;49.238;9.262;2022-10-17T03:45:07;8.63;;;7.70;;
3783;SDS011;1907;49.238;9.262;2022-10-17T03:47:33;9.10;;;8.30;;
3783;SDS011;1907;49.238;9.262;2022-10-17T03:49:59;4.97;;;4.77;;
3783;SDS011;1907;49.238;9.262;2022-10-17T03:52:24;5.53;;;4.50;;
3783;SDS011;1907;49.238;9.262;2022-10-17T03:54:50;4.90;;;3.70;;
3783;SDS011;1907;49.238;9.262;2022-10-17T03:57:16;3.57;;;3.40;;
3783;SDS011;1907;49.238;9.262;2022-10-17T03:59:42;4.13;;;3.90;;
3783;SDS011;1907;49.238;9.262;2022-10-17T04:02:08;4.13;;;3.93;;
3783;SDS011;1907;49.238;9.262;2022-10-17T04:04:34;8.93;;;4.40;;
3783;SDS011;1907;49.238;9.262;2022-10-17T04:06:59;7.60;;;3.87;;
3783;SDS011;1907;49.238;9.262;2022-10-17T04:09:25;9.23;;;3.77;;
3783;SDS011;1907;49.238;9.262;2022-10-17T04:11:50;3.43;;;3.23;;
3783;SDS011;1907;49.238;9.262;2022-10-17T04:14:16;3.93;;;3.73;;
3783;SDS011;1907;49.238;9.262;2022-10-17T04:16:41;4.20;;;3.20;;
3783;SDS011;1907;49.238;9.262;2022-10-17T04:19:09;2.80;;;2.70;;
3783;SDS011;1907;49.238;9.262;2022-10-17T04:21:36;3.77;;;3.57;;
3783;SDS011;1907;49.238;9.262;2022-10-17T04:24:02;3.87;;;3.17;;
3783;SDS011;1907;49.238;9.262;2022-10-17T04:26:27;3.30;;;3.10;;
3783;SDS011;1907;49.238;9.262;2022-10-17T04:28:53;3.10;;;2.90;;
3783;SDS011;1907;49.238;9.262;2022-10-17T04:31:19;3.20;;;3.10;;
3783;SDS011;1907;49.238;9.262;2022-10-17T04:33:48;8.40;;;3.27;;
3783;SDS011;1907;49.238;9.262;2022-10-17T04:36:15;3.00;;;2.90;;
3783;SDS011;1907;49.238;9.262;2022-10-17T04:38:42;2.93;;;2.83;;
3783;SDS011;1907;49.238;9.262;2022-10-17T04:41:09;2.70;;;2.50;;
3783;SDS011;1907;49.238;9.262;2022-10-17T04:43:37;7.47;;;2.97;;
3783;SDS011;1907;49.238;9.262;2022-10-17T04:46:05;3.43;;;3.23;;
3783;SDS011;1907;49.238;9.262;2022-10-17T04:48:32;3.23;;;3.10;;
3783;SDS011;1907;49.238;9.262;2022-10-17T04:50:59;2.43;;;2.33;;
3783;SDS011;1907;49.238;9.262;2022-10-17T04:53:27;3.10;;;3.00;;
3783;SDS011;1907;49.238;9.262;2022-10-17T04:55:52;6.20;;;3.63;;
3783;SDS011;1907;49.238;9.262;2022-10-17T04:58:18;3.03;;;2.83;;
3783;SDS011;1907;49.238;9.262;2022-10-17T05:00:44;3.53;;;3.43;;
3783;SDS011;1907;49.238;9.262;2022-10-17T05:03:10;3.30;;;3.20;;
3783;SDS011;1907;49.238;9.262;2022-10-17T05:05:36;5.87;;;3.73;;
3783;SDS011;1907;49.238;9.262;2022-10-17T05:08:03;4.77;;;4.57;;
3783;SDS011;1907;49.238;9.262;2022-10-17T05:10:29;8.40;;;3.40;;
3783;SDS011;1907;49.238;9.262;2022-10-17T05:12:55;3.80;;;3.60;;
3783;SDS011;1907;49.238;9.262;2022-10-17T05:15:20;7.87;;;3.73;;
3783;SDS011;1907;49.238;9.262;2022-10-17T05:17:46;3.57;;;3.37;;
3783;SDS011;1907;49.238;9.262;2022-10-17T05:20:11;3.90;;;3.70;;
3783;SDS011;1907;49.238;9.262;2022-10-17T05:22:37;3.67;;;3.47;;
3783;SDS011;1907;49.238;9.262;2022-10-17T05:25:03;4.50;;;4.20;;
3783;SDS011;1907;49.238;9.262;2022-10-17T05:27:29;5.87;;;4.70;;
3783;SDS011;1907;49.238;9.262;2022-10-17T05:29:54;3.63;;;3.27;;
3783;SDS011;1907;49.238;9.262;2022-10-17T05:32:20;4.40;;;4.00;;
3783;SDS011;1907;49.238;9.262;2022-10-17T05:34:46;3.97;;;3.77;;
3783;SDS011;1907;49.238;9.262;2022-10-17T05:37:11;9.93;;;3.50;;
3783;SDS011;1907;49.238;9.262;2022-10-17T05:39:37;4.93;;;3.77;;
3783;SDS011;1907;49.238;9.262;2022-10-17T05:42:02;4.47;;;4.03;;
3783;SDS011;1907;49.238;9.262;2022-10-17T05:44:28;3.73;;;3.53;;
3783;SDS011;1907;49.238;9.262;2022-10-17T05:46:53;9.50;;;3.53;;
3783;SDS011;1907;49.238;9.262;2022-10-17T05:49:19;3.53;;;3.40;;
3783;SDS011;1907;49.238;9.262;2022-10-17T05:51:44;4.77;;;4.57;;
3783;SDS011;1907;49.238;9.262;2022-10-17T05:54:10;3.13;;;3.03;;
3783;SDS011;1907;49.238;9.262;2022-10-17T05:56:35;3.43;;;3.33;;
3783;SDS011;1907;49.238;9.262;2022-10-17T05:59:01;5.83;;;2.90;;
3783;SDS011;1907;49.238;9.262;2022-10-17T06:01:27;6.93;;;2.97;;
3783;SDS011;1907;49.238;9.262;2022-10-17T06:03:52;5.93;;;3.77;;
3783;SDS011;1907;49.238;9.262;2022-10-17T06:06:18;4.20;;;3.90;;
3783;SDS011;1907;49.238;9.262;2022-10-17T06:08:44;4.07;;;3.87;;
3783;SDS011;1907;49.238;9.262;2022-10-17T06:11:10;3.20;;;3.00;;
3783;SDS011;1907;49.238;9.262;2022-10-17T06:13:37;3.00;;;2.90;;
3783;SDS011;1907;49.238;9.262;2022-10-17T06:16:04;4.40;;;4.20;;
3783;SDS011;1907;49.238;9.262;2022-10-17T06:18:30;3.90;;;3.70;;
3783;SDS011;1907;49.238;9.262;2022-10-17T06:21:06;4.50;;;4.30;;
3783;SDS011;1907;49.238;9.262;2022-10-17T06:23:33;6.77;;;6.47;;
3783;SDS011;1907;49.238;9.262;2022-10-17T06:25:59;5.87;;;5.07;;
3783;SDS011;1907;49.238;9.262;2022-10-17T06:28:26;3.90;;;3.70;;
3783;SDS011;1907;49.238;9.262;2022-10-17T06:30:52;4.23;;;4.03;;
3783;SDS011;1907;49.238;9.262;2022-10-17T06:33:17;5.30;;;4.03;;
3783;SDS011;1907;49.238;9.262;2022-10-17T06:35:49;4.40;;;4.20;;
3783;SDS011;1907;49.238;9.262;2022-10-17T06:38:16;4.37;;;4.17;;
3783;SDS011;1907;49.238;9.262;2022-10-17T06:40:41;3.73;;;3.53;;
3783;SDS011;1907;49.238;9.262;2022-10-17T06:43:07;5.40;;;4.10;;
3783;SDS011;1907;49.238;9.262;2022-10-17T06:45:33;5.13;;;4.73;;
3783;SDS011;1907;49.238;9.262;2022-10-17T06:47:58;4.50;;;4.27;;
3783;SDS011;1907;49.238;9.262;2022-10-17T06:50:25;3.63;;;3.43;;
3783;SDS011;1907;49.238;9.262;2022-10-17T06:52:51;3.73;;;3.53;;
3783;SDS011;1907;49.238;9.262;2022-10-17T06:55:16;5.50;;;3.33;;
3783;SDS011;1907;49.238;9.262;2022-10-17T06:57:42;9.20;;;3.43;;
3783;SDS011;1907;49.238;9.262;2022-10-17T07:00:08;8.30;;;4.00;;
3783;SDS011;1907;49.238;9.262;2022-10-17T07:02:34;4.83;;;3.60;;
3783;SDS011;1907;49.238;9.262;2022-10-17T07:04:59;7.00;;;4.67;;
3783;SDS011;1907;49.238;9.262;2022-10-17T07:07:25;3.80;;;3.70;;
3783;SDS011;1907;49.238;9.262;2022-10-17T07:09:50;3.70;;;3.53;;
3783;SDS011;1907;49.238;9.262;2022-10-17T07:12:16;3.57;;;3.37;;
3783;SDS011;1907;49.238;9.262;2022-10-17T07:14:42;2.30;;;2.20;;
3783;SDS011;1907;49.238;9.262;2022-10-17T07:17:07;4.23;;;3.40;;
3783;SDS011;1907;49.238;9.262;2022-10-17T07:19:34;2.90;;;2.10;;
3783;SDS011;1907;49.238;9.262;2022-10-17T07:21:59;1.70;;;1.60;;
3783;SDS011;1907;49.238;9.262;2022-10-17T07:24:25;3.47;;;1.90;;
3783;SDS011;1907;49.238;9.262;2022-10-17T07:26:51;2.87;;;2.10;;
3783;SDS011;1907;49.238;9.262;2022-10-17T07:29:16;1.53;;;1.17;;
3783;SDS011;1907;49.238;9.262;2022-10-17T07:31:42;1.60;;;1.50;;
3783;SDS011;1907;49.238;9.262;2022-10-17T07:34:09;1.23;;;1.23;;
3783;SDS011;1907;49.238;9.262;2022-10-17T07:36:35;1.30;;;1.27;;
3783;SDS011;1907;49.238;9.262;2022-10-17T07:39:00;1.03;;;1.03;;
3783;SDS011;1907;49.238;9.262;2022-10-17T07:41:26;2.73;;;1.20;;
3783;SDS011;1907;49.238;9.262;2022-10-17T07:43:51;2.80;;;1.00;;
3783;SDS011;1907;49.238;9.262;2022-10-17T07:46:17;0.93;;;0.90;;
3783;SDS011;1907;49.238;9.262;2022-10-17T07:48:42;1.23;;;1.13;;
3783;SDS011;1907;49.238;9.262;2022-10-17T07:51:08;4.23;;;1.33;;
3783;SDS011;1907;49.238;9.262;2022-10-17T07:53:37;1.50;;;1.50;;
3783;SDS011;1907;49.238;9.262;2022-10-17T07:56:06;1.80;;;1.70;;
3783;SDS011;1907;49.238;9.262;2022-10-17T07:58:33;2.57;;;2.47;;
3783;SDS011;1907;49.238;9.262;2022-10-17T08:01:03;2.73;;;2.63;;
3783;SDS011;1907;49.238;9.262;2022-10-17T08:03:31;2.17;;;1.70;;
3783;SDS011;1907;49.238;9.262;2022-10-17T08:05:57;1.50;;;1.40;;
3783;SDS011;1907;49.238;9.262;2022-10-17T08:08:26;1.50;;;1.40;;
3783;SDS011;1907;49.238;9.262;2022-10-17T08:10:53;2.67;;;1.73;;
3783;SDS011;1907;49.238;9.262;2022-10-17T08:13:20;5.33;;;1.97;;
3783;SDS011;1907;49.238;9.262;2022-10-17T08:15:48;1.50;;;1.40;;
3783;SDS011;1907;49.238;9.262;2022-10-17T08:18:14;3.17;;;2.50;;
3783;SDS011;1907;49.238;9.262;2022-10-17T08:20:40;5.90;;;2.50;;
3783;SDS011;1907;49.238;9.262;2022-10-17T08:23:06;1.47;;;1.37;;
3783;SDS011;1907;49.238;9.262;2022-10-17T08:25:32;2.20;;;1.77;;
3783;SDS011;1907;49.238;9.262;2022-10-17T08:27:58;1.83;;;1.37;;
3783;SDS011;1907;49.238;9.262;2022-10-17T08:30:23;2.03;;;1.93;;
3783;SDS011;1907;49.238;9.262;2022-10-17T08:32:49;2.10;;;2.00;;
3783;SDS011;1907;49.238;9.262;2022-10-17T08:35:15;1.47;;;1.37;;
3783;SDS011;1907;49.238;9.262;2022-10-17T08:37:40;2.37;;;2.27;;
3783;SDS011;1907;49.238;9.262;2022-10-17T08:40:08;2.40;;;2.30;;
3783;SDS011;1907;49.238;9.262;2022-10-17T08:42:57;3.13;;;1.40;;
3783;SDS011;1907;49.238;9.262;2022-10-17T08:45:55;2.17;;;1.93;;
3783;SDS011;1907;49.238;9.262;2022-10-17T08:48:24;2.13;;;2.03;;
3783;SDS011;1907;49.238;9.262;2022-10-17T08:51:04;3.10;;;1.63;;
3783;SDS011;1907;49.238;9.262;2022-10-17T08:53:48;1.70;;;1.60;;
3783;SDS011;1907;49.238;9.262;2022-10-17T08:59:26;4.00;;;1.20;;
3783;SDS011;1907;49.238;9.262;2022-10-17T09:09:59;2.10;;;1.90;;
3783;SDS011;1907;49.238;9.262;2022-10-17T09:12:47;6.90;;;1.37;;
3783;SDS011;1907;49.238;9.262;2022-10-17T09:18:32;1.77;;;1.50;;
3783;SDS011;1907;49.238;9.262;2022-10-17T09:21:16;4.73;;;1.50;;
3783;SDS011;1907;49.238;9.262;2022-10-17T09:24:04;1.83;;;0.90;;
3783;SDS011;1907;49.238;9.262;2022-10-17T09:26:36;1.37;;;1.30;;
3783;SDS011;1907;49.238;9.262;2022-10-17T09:29:04;1.20;;;1.10;;
3783;SDS011;1907;49.238;9.262;2022-10-17T09:31:41;1.47;;;1.10;;
3783;SDS011;1907;49.238;9.262;2022-10-17T09:34:13;3.00;;;1.47;;
3783;SDS011;1907;49.238;9.262;2022-10-17T09:36:39;2.77;;;1.00;;
3783;SDS011;1907;49.238;9.262;2022-10-17T09:39:11;1.73;;;1.63;;
3783;SDS011;1907;49.238;9.262;2022-10-17T09:42:00;1.67;;;1.57;;
3783;SDS011;1907;49.238;9.262;2022-10-17T09:44:34;3.13;;;1.43;;
3783;SDS011;1907;49.238;9.262;2022-10-17T09:47:23;3.87;;;1.37;;
3783;SDS011;1907;49.238;9.262;2022-10-17T09:50:04;1.13;;;1.03;;
3783;SDS011;1907;49.238;9.262;2022-10-17T09:52:40;2.40;;;1.30;;
3783;SDS011;1907;49.238;9.262;2022-10-17T09:57:56;1.53;;;0.80;;
3783;SDS011;1907;49.238;9.262;2022-10-17T10:00:30;1.63;;;1.53;;
3783;SDS011;1907;49.238;9.262;2022-10-17T10:03:15;1.03;;;1.03;;
3783;SDS011;1907;49.238;9.262;2022-10-17T10:06:04;3.57;;;1.77;;
3783;SDS011;1907;49.238;9.262;2022-10-17T10:11:15;4.23;;;0.80;;
3783;SDS011;1907;49.238;9.262;2022-10-17T10:13:42;2.17;;;1.50;;
3783;SDS011;1907;49.238;9.262;2022-10-17T10:16:30;2.10;;;2.00;;
3783;SDS011;1907;49.238;9.262;2022-10-17T10:18:56;0.87;;;0.87;;
3783;SDS011;1907;49.238;9.262;2022-10-17T10:21:23;2.70;;;1.33;;
3783;SDS011;1907;49.238;9.262;2022-10-17T10:31:47;7.57;;;1.70;;
3783;SDS011;1907;49.238;9.262;2022-10-17T10:34:15;3.10;;;1.07;;
3783;SDS011;1907;49.238;9.262;2022-10-17T10:37:02;5.27;;;1.00;;
3783;SDS011;1907;49.238;9.262;2022-10-17T10:39:39;4.37;;;1.30;;
3783;SDS011;1907;49.238;9.262;2022-10-17T10:42:26;3.50;;;0.80;;
3783;SDS011;1907;49.238;9.262;2022-10-17T10:44:56;10.33;;;1.53;;
3783;SDS011;1907;49.238;9.262;2022-10-17T10:47:29;1.20;;;1.10;;
3783;SDS011;1907;49.238;9.262;2022-10-17T10:52:44;2.63;;;0.90;;
3783;SDS011;1907;49.238;9.262;2022-10-17T10:55:20;1.50;;;1.30;;
3783;SDS011;1907;49.238;9.262;2022-10-17T10:57:46;1.30;;;1.20;;
3783;SDS011;1907;49.238;9.262;2022-10-17T11:00:20;3.63;;;1.10;;
3783;SDS011;1907;49.238;9.262;2022-10-17T11:03:01;3.83;;;1.00;;
3783;SDS011;1907;49.238;9.262;2022-10-17T11:06:03;1.23;;;1.03;;
3783;SDS011;1907;49.238;9.262;2022-10-17T11:08:37;0.90;;;0.80;;
3783;SDS011;1907;49.238;9.262;2022-10-17T11:11:18;1.20;;;1.10;;
3783;SDS011;1907;49.238;9.262;2022-10-17T11:13:53;1.33;;;1.03;;
3783;SDS011;1907;49.238;9.262;2022-10-17T11:16:39;2.83;;;1.03;;
3783;SDS011;1907;49.238;9.262;2022-10-17T11:24:28;3.17;;;1.10;;
3783;SDS011;1907;49.238;9.262;2022-10-17T11:27:02;1.37;;;1.23;;
3783;SDS011;1907;49.238;9.262;2022-10-17T11:29:33;2.53;;;1.20;;
3783;SDS011;1907;49.238;9.262;2022-10-17T11:35:13;0.70;;;0.60;;
3783;SDS011;1907;49.238;9.262;2022-10-17T11:37:50;1.03;;;0.97;;
3783;SDS011;1907;49.238;9.262;2022-10-17T11:40:28;0.87;;;0.80;;
3783;SDS011;1907;49.238;9.262;2022-10-17T11:42:58;0.87;;;0.70;;
3783;SDS011;1907;49.238;9.262;2022-10-17T11:45:27;1.00;;;0.87;;
3783;SDS011;1907;49.238;9.262;2022-10-17T11:48:08;0.90;;;0.90;;
3783;SDS011;1907;49.238;9.262;2022-10-17T11:50:44;2.17;;;1.00;;
3783;SDS011;1907;49.238;9.262;2022-10-17T11:55:44;1.07;;;0.70;;
3783;SDS011;1907;49.238;9.262;2022-10-17T12:00:57;1.03;;;0.93;;
3783;SDS011;1907;49.238;9.262;2022-10-17T12:06:14;3.20;;;1.33;;
3783;SDS011;1907;49.238;9.262;2022-10-17T12:08:44;1.60;;;1.50;;
3783;SDS011;1907;49.238;9.262;2022-10-17T12:11:27;1.30;;;1.20;;
3783;SDS011;1907;49.238;9.262;2022-10-17T12:13:54;1.40;;;0.80;;
3783;SDS011;1907;49.238;9.262;2022-10-17T12:18:48;1.20;;;1.10;;
3783;SDS011;1907;49.238;9.262;2022-10-17T12:21:26;2.87;;;1.13;;
3783;SDS011;1907;49.238;9.262;2022-10-17T12:24:29;1.60;;;1.37;;
3783;SDS011;1907;49.238;9.262;2022-10-17T12:32:36;5.37;;;1.10;;
3783;SDS011;1907;49.238;9.262;2022-10-17T12:35:20;1.50;;;1.40;;
3783;SDS011;1907;49.238;9.262;2022-10-17T12:43:00;1.60;;;1.50;;
3783;SDS011;1907;49.238;9.262;2022-10-17T12:45:56;1.37;;;1.27;;
3783;SDS011;1907;49.238;9.262;2022-10-17T12:59:27;1.63;;;1.27;;
3783;SDS011;1907;49.238;9.262;2022-10-17T13:01:59;2.20;;;2.10;;
3783;SDS011;1907;49.238;9.262;2022-10-17T13:04:27;1.63;;;1.53;;
3783;SDS011;1907;49.238;9.262;2022-10-17T13:06:55;1.23;;;1.13;;
3783;SDS011;1907;49.238;9.262;2022-10-17T13:09:26;2.40;;;1.40;;
3783;SDS011;1907;49.238;9.262;2022-10-17T13:12:02;1.80;;;0.90;;
3783;SDS011;1907;49.238;9.262;2022-10-17T13:14:30;1.13;;;1.03;;
3783;SDS011;1907;49.238;9.262;2022-10-17T13:17:01;1.53;;;1.43;;
3783;SDS011;1907;49.238;9.262;2022-10-17T13:19:30;1.77;;;1.20;;
3783;SDS011;1907;49.238;9.262;2022-10-17T13:22:09;1.40;;;1.30;;
3783;SDS011;1907;49.238;9.262;2022-10-17T13:24:46;1.27;;;1.17;;
3783;SDS011;1907;49.238;9.262;2022-10-17T13:27:28;2.70;;;1.00;;
3783;SDS011;1907;49.238;9.262;2022-10-17T13:29:56;0.83;;;0.83;;
3783;SDS011;1907;49.238;9.262;2022-10-17T13:32:23;1.50;;;1.40;;
3783;SDS011;1907;49.238;9.262;2022-10-17T13:35:09;4.10;;;0.90;;
3783;SDS011;1907;49.238;9.262;2022-10-17T13:37:38;1.40;;;0.90;;
3783;SDS011;1907;49.238;9.262;2022-10-17T13:40:05;1.17;;;1.07;;
3783;SDS011;1907;49.238;9.262;2022-10-17T13:42:38;0.83;;;0.80;;
3783;SDS011;1907;49.238;9.262;2022-10-17T13:45:51;4.23;;;1.30;;
3783;SDS011;1907;49.238;9.262;2022-10-17T13:47:54;6.30;;;1.13;;
3783;SDS011;1907;49.238;9.262;2022-10-17T13:50:24;1.60;;;1.50;;
3783;SDS011;1907;49.238;9.262;2022-10-17T13:55:56;3.77;;;1.03;;
3783;SDS011;1907;49.238;9.262;2022-10-17T13:58:25;0.90;;;0.90;;
3783;SDS011;1907;49.238;9.262;2022-10-17T14:00:55;1.30;;;1.20;;
3783;SDS011;1907;49.238;9.262;2022-10-17T14:03:22;1.30;;;1.20;;
3783;SDS011;1907;49.238;9.262;2022-10-17T14:08:50;1.47;;;1.10;;
3783;SDS011;1907;49.238;9.262;2022-10-17T14:11:26;1.43;;;1.33;;
3783;SDS011;1907;49.238;9.262;2022-10-17T14:13:59;1.30;;;1.20;;
3783;SDS011;1907;49.238;9.262;2022-10-17T14:16:32;1.27;;;1.17;;
3783;SDS011;1907;49.238;9.262;2022-10-17T14:19:03;1.47;;;1.20;;
3783;SDS011;1907;49.238;9.262;2022-10-17T14:21:30;0.90;;;0.90;;
3783;SDS011;1907;49.238;9.262;2022-10-17T14:24:24;9.93;;;2.33;;
3783;SDS011;1907;49.238;9.262;2022-10-17T14:26:53;5.47;;;1.20;;
3783;SDS011;1907;49.238;9.262;2022-10-17T14:31:55;1.97;;;1.87;;
3783;SDS011;1907;49.238;9.262;2022-10-17T14:34:31;3.13;;;1.63;;
3783;SDS011;1907;49.238;9.262;2022-10-17T14:37:09;3.30;;;3.20;;
3783;SDS011;1907;49.238;9.262;2022-10-17T14:39:36;4.73;;;1.27;;
3783;SDS011;1907;49.238;9.262;2022-10-17T14:42:02;1.90;;;1.80;;
3783;SDS011;1907;49.238;9.262;2022-10-17T14:44:32;1.53;;;1.43;;
3783;SDS011;1907;49.238;9.262;2022-10-17T14:47:00;2.80;;;1.37;;
3783;SDS011;1907;49.238;9.262;2022-10-17T14:49:38;3.33;;;1.40;;
3783;SDS011;1907;49.238;9.262;2022-10-17T14:52:08;4.80;;;2.30;;
3783;SDS011;1907;49.238;9.262;2022-10-17T14:54:35;4.00;;;1.83;;
3783;SDS011;1907;49.238;9.262;2022-10-17T14:57:07;1.13;;;1.10;;
3783;SDS011;1907;49.238;9.262;2022-10-17T14:59:40;1.20;;;1.10;;
3783;SDS011;1907;49.238;9.262;2022-10-17T15:02:05;1.40;;;1.17;;
3783;SDS011;1907;49.238;9.262;2022-10-17T15:04:32;2.10;;;1.90;;
3783;SDS011;1907;49.238;9.262;2022-10-17T15:06:58;1.70;;;1.60;;
3783;SDS011;1907;49.238;9.262;2022-10-17T15:09:23;2.53;;;2.13;;
3783;SDS011;1907;49.238;9.262;2022-10-17T15:11:52;1.23;;;1.23;;
3783;SDS011;1907;49.238;9.262;2022-10-17T15:14:19;2.43;;;1.80;;
3783;SDS011;1907;49.238;9.262;2022-10-17T15:16:45;1.50;;;1.30;;
3783;SDS011;1907;49.238;9.262;2022-10-17T15:19:11;1.30;;;1.10;;
3783;SDS011;1907;49.238;9.262;2022-10-17T15:21:38;7.73;;;1.70;;
3783;SDS011;1907;49.238;9.262;2022-10-17T15:24:03;2.80;;;1.30;;
3783;SDS011;1907;49.238;9.262;2022-10-17T15:26:30;7.53;;;1.97;;
3783;SDS011;1907;49.238;9.262;2022-10-17T15:28:57;3.87;;;2.20;;
3783;SDS011;1907;49.238;9.262;2022-10-17T15:31:24;1.33;;;1.23;;
3783;SDS011;1907;49.238;9.262;2022-10-17T15:33:51;1.37;;;1.27;;
3783;SDS011;1907;49.238;9.262;2022-10-17T15:38:54;11.63;;;1.87;;
3783;SDS011;1907;49.238;9.262;2022-10-17T15:41:21;2.90;;;1.30;;
3783;SDS011;1907;49.238;9.262;2022-10-17T15:43:51;4.63;;;1.87;;
3783;SDS011;1907;49.238;9.262;2022-10-17T15:46:24;1.87;;;1.77;;
3783;SDS011;1907;49.238;9.262;2022-10-17T15:48:53;31.23;;;2.57;;
3783;SDS011;1907;49.238;9.262;2022-10-17T15:51:19;1.40;;;1.30;;
3783;SDS011;1907;49.238;9.262;2022-10-17T15:53:46;1.43;;;1.33;;
3783;SDS011;1907;49.238;9.262;2022-10-17T15:56:21;1.93;;;1.83;;
3783;SDS011;1907;49.238;9.262;2022-10-17T15:58:50;1.93;;;1.83;;
3783;SDS011;1907;49.238;9.262;2022-10-17T16:01:20;6.53;;;1.47;;
3783;SDS011;1907;49.238;9.262;2022-10-17T16:03:47;1.30;;;1.20;;
3783;SDS011;1907;49.238;9.262;2022-10-17T16:06:14;0.93;;;0.93;;
3783;SDS011;1907;49.238;9.262;2022-10-17T16:08:41;17.83;;;1.57;;
3783;SDS011;1907;49.238;9.262;2022-10-17T16:11:09;2.37;;;2.00;;
3783;SDS011;1907;49.238;9.262;2022-10-17T16:13:52;2.10;;;2.00;;
3783;SDS011;1907;49.238;9.262;2022-10-17T16:16:19;6.80;;;2.23;;
3783;SDS011;1907;49.238;9.262;2022-10-17T16:18:46;4.97;;;1.93;;
3783;SDS011;1907;49.238;9.262;2022-10-17T16:21:12;1.97;;;1.63;;
3783;SDS011;1907;49.238;9.262;2022-10-17T16:23:39;2.50;;;2.17;;
3783;SDS011;1907;49.238;9.262;2022-10-17T16:26:05;2.90;;;2.70;;
3783;SDS011;1907;49.238;9.262;2022-10-17T16:28:31;2.47;;;2.37;;
3783;SDS011;1907;49.238;9.262;2022-10-17T16:30:57;2.33;;;2.23;;
3783;SDS011;1907;49.238;9.262;2022-10-17T16:33:23;2.20;;;2.10;;
3783;SDS011;1907;49.238;9.262;2022-10-17T16:35:48;2.57;;;2.00;;
3783;SDS011;1907;49.238;9.262;2022-10-17T16:38:14;2.53;;;2.33;;
3783;SDS011;1907;49.238;9.262;2022-10-17T16:40:40;1.70;;;1.60;;
3783;SDS011;1907;49.238;9.262;2022-10-17T16:43:06;1.67;;;1.57;;
3783;SDS011;1907;49.238;9.262;2022-10-17T16:45:34;4.13;;;2.97;;
3783;SDS011;1907;49.238;9.262;2022-10-17T16:48:00;1.90;;;1.80;;
3783;SDS011;1907;49.238;9.262;2022-10-17T16:50:26;1.87;;;1.77;;
3783;SDS011;1907;49.238;9.262;2022-10-17T16:52:51;2.43;;;2.23;;
3783;SDS011;1907;49.238;9.262;2022-10-17T16:55:17;3.90;;;2.00;;
3783;SDS011;1907;49.238;9.262;2022-10-17T16:57:43;2.20;;;2.10;;
3783;SDS011;1907;49.238;9.262;2022-10-17T17:00:09;4.93;;;4.67;;
3783;SDS011;1907;49.238;9.262;2022-10-17T17:02:36;10.50;;;9.70;;
3783;SDS011;1907;49.238;9.262;2022-10-17T17:05:02;8.17;;;7.57;;
3783;SDS011;1907;49.238;9.262;2022-10-17T17:07:28;5.10;;;4.87;;
3783;SDS011;1907;49.238;9.262;2022-10-17T17:09:53;5.10;;;4.60;;
3783;SDS011;1907;49.238;9.262;2022-10-17T17:12:20;4.83;;;4.43;;
3783;SDS011;1907;49.238;9.262;2022-10-17T17:14:46;5.17;;;4.43;;
3783;SDS011;1907;49.238;9.262;2022-10-17T17:17:12;4.90;;;4.63;;
3783;SDS011;1907;49.238;9.262;2022-10-17T17:19:37;5.57;;;4.47;;
3783;SDS011;1907;49.238;9.262;2022-10-17T17:22:03;4.57;;;4.33;;
3783;SDS011;1907;49.238;9.262;2022-10-17T17:24:29;3.93;;;3.53;;